KRAC/RAC METAR and TAF weather

Enter ICAO airport designator
Station Type Date Time Source
KRAC METAR 2019/12/13 02:53 UTC NOAA

KRAC 130253Z AUTO 20010KT 10SM OVC049 06/M02 A3003 RMK AO2 SLP174 T00561022 56007


Station Type Date Time Source
KRAC Decoded METAR 2019/12/13 02:53 UTC NOAA

BATTEN INTERNATIONAL AIRPORT, WI, United States (KRAC) 42-46N 87-49W 203M
Dec 12, 2019 - 09:53 PM EST / 2019.12.13 0253 UTC
Wind: from the SSW (200 degrees) at 12 MPH (10 KT):0
Visibility: 10 mile(s):0
Sky conditions: overcast
Temperature: 42.1 F (5.6 C)
Dew Point: 28.0 F (-2.2 C)
Relative Humidity: 57%
Pressure (altimeter): 30.03 in. Hg (1016 hPa)
Pressure tendency: 0.02 inches (0.7 hPa) lower than three hours ago
ob: KRAC 130253Z AUTO 20010KT 10SM OVC049 06/M02 A3003 RMK AO2 SLP174 T00561022 56007
cycle: 3

Station Type Date Time Source
KRAC TAF UTC NOAA

Error!

Example: see airport list